Time;durP1;ratioP1;P1;durP2;ratioP2;P2;SDS_P1;SDS_P2;PMS_P1;PMS_P2;Temp;Humidity;BMP_temperature;BMP_pressure;BME280_temperature;BME280_humidity;BME280_pressure;Samples;Min_cycle;Max_cycle;Signal;HPM_P1;HPM_P2
2024/03/07 00:00:19;;;;;;;68.57;28.25;;;;;;;9.60;71.81;102728.47;5052025;28;20039;-78
2024/03/07 00:02:54;;;;;;;65.70;28.40;;;;;;;9.72;71.65;102732.56;5051005;28;20041;-78
2024/03/07 00:05:24;;;;;;;64.80;28.15;;;;;;;9.78;71.74;102730.22;5050470;28;20053;-79
2024/03/07 00:07:49;;;;;;;72.22;29.08;;;;;;;9.66;72.14;102729.66;5051586;28;20508;-79
2024/03/07 00:10:15;;;;;;;72.07;29.55;;;;;;;9.74;72.22;102733.53;5051717;28;20097;-78
2024/03/07 00:12:41;;;;;;;68.40;29.67;;;;;;;9.87;72.03;102739.31;5050454;28;20076;-78
2024/03/07 00:15:12;;;;;;;69.82;28.77;;;;;;;9.84;71.31;102740.03;5051462;28;20560;-79
2024/03/07 00:17:44;;;;;;;69.63;29.42;;;;;;;9.79;71.38;102746.75;5049947;28;20546;-77
2024/03/07 00:20:19;;;;;;;69.07;28.80;;;;;;;9.75;72.07;102737.91;5051404;28;20040;-79
2024/03/07 00:22:47;;;;;;;70.97;29.58;;;;;;;9.73;72.39;102738.66;5048796;28;20124;-79
2024/03/07 00:25:14;;;;;;;69.78;29.55;;;;;;;9.68;72.71;102738.44;5051450;28;20035;-78
2024/03/07 00:27:45;;;;;;;69.20;29.92;;;;;;;9.59;72.53;102742.31;5050494;28;20033;-78
2024/03/07 00:30:13;;;;;;;68.53;29.67;;;;;;;9.79;72.27;102741.53;5051027;28;20033;-77
2024/03/07 00:32:41;;;;;;;70.30;29.40;;;;;;;9.87;71.55;102747.13;5050131;28;20029;-79
2024/03/07 00:35:10;;;;;;;72.60;29.48;;;;;;;9.58;73.16;102746.63;5049608;28;20428;-79
2024/03/07 00:37:41;;;;;;;71.22;29.48;;;;;;;9.67;73.15;102740.97;5050251;28;20494;-78
2024/03/07 00:40:13;;;;;;;75.47;30.30;;;;;;;9.76;72.27;102741.38;5050819;28;20033;-77
2024/03/07 00:42:38;;;;;;;73.30;30.50;;;;;;;9.83;71.92;102733.03;5049775;28;20053;-78
2024/03/07 00:45:07;;;;;;;72.22;29.45;;;;;;;9.80;71.37;102732.91;5050693;28;20120;-78
2024/03/07 00:47:32;;;;;;;67.10;29.20;;;;;;;9.77;70.75;102730.16;5049983;28;20556;-78
2024/03/07 00:50:01;;;;;;;68.55;29.30;;;;;;;9.69;70.72;102736.75;5050729;28;20025;-79
2024/03/07 00:52:35;;;;;;;75.55;29.40;;;;;;;9.59;71.14;102732.78;5050066;28;20032;-78
2024/03/07 00:55:00;;;;;;;64.75;28.90;;;;;;;9.56;70.92;102734.38;5049911;28;20422;-77
2024/03/07 00:57:26;;;;;;;71.50;28.77;;;;;;;9.52;71.22;102728.13;5052382;28;20037;-77
2024/03/07 00:59:51;;;;;;;76.10;31.55;;;;;;;9.42;71.94;102725.91;5054018;28;20036;-78
2024/03/07 01:02:23;;;;;;;73.25;30.17;;;;;;;9.31;72.87;102732.31;5054952;28;20044;-77
2024/03/07 01:04:58;;;;;;;69.88;29.85;;;;;;;9.41;72.88;102725.81;5050937;28;20029;-78
2024/03/07 01:07:31;;;;;;;70.18;29.40;;;;;;;9.26;73.31;102724.31;5050043;28;20136;-79
2024/03/07 01:10:00;;;;;;;75.22;29.90;;;;;;;9.41;72.69;102725.81;5050995;28;20032;-79
2024/03/07 01:12:30;;;;;;;72.10;29.77;;;;;;;9.36;72.23;102726.50;5048291;28;20037;-78
2024/03/07 01:14:57;;;;;;;73.18;30.67;;;;;;;9.43;72.16;102730.31;5050401;28;20041;-78
2024/03/07 01:17:22;;;;;;;74.78;30.45;;;;;;;9.46;72.08;102725.22;5049844;28;20041;-77
2024/03/07 01:19:47;;;;;;;72.80;30.33;;;;;;;9.38;72.57;102731.81;5050250;28;20128;-78
2024/03/07 01:22:22;;;;;;;71.70;29.10;;;;;;;9.35;72.79;102727.31;5048393;28;20059;-77
2024/03/07 01:24:47;;;;;;;74.75;30.35;;;;;;;9.37;73.00;102724.81;5049757;28;20553;-78
2024/03/07 01:27:16;;;;;;;71.53;30.15;;;;;;;9.28;73.70;102719.16;5050267;28;20037;-78
2024/03/07 01:29:42;;;;;;;75.80;30.42;;;;;;;9.39;72.42;102719.69;5048927;28;20040;-79
2024/03/07 01:32:11;;;;;;;70.90;29.63;;;;;;;9.40;71.49;102711.91;5049620;28;20057;-78
2024/03/07 01:34:36;;;;;;;79.38;30.40;;;;;;;9.31;71.64;102715.00;5049732;28;20495;-79
2024/03/07 01:37:05;;;;;;;71.97;28.90;;;;;;;9.26;71.70;102710.41;5050298;28;20036;-76
2024/03/07 01:39:30;;;;;;;76.47;30.48;;;;;;;9.18;72.25;102716.94;5049765;28;20037;-78
2024/03/07 01:41:55;;;;;;;77.43;30.52;;;;;;;9.06;73.40;102713.72;5049199;28;20037;-79
2024/03/07 01:44:21;;;;;;;75.15;30.33;;;;;;;9.17;72.37;102716.03;5049391;28;20065;-78
2024/03/07 01:46:50;;;;;;;77.88;30.60;;;;;;;9.03;73.76;102706.66;5050170;28;20461;-78
2024/03/07 01:49:18;;;;;;;72.35;29.73;;;;;;;9.21;72.72;102710.16;5049833;28;20091;-78
2024/03/07 01:51:53;;;;;;;75.00;29.98;;;;;;;9.20;72.02;102703.19;5049496;28;20059;-77
2024/03/07 01:54:22;;;;;;;78.47;29.83;;;;;;;9.16;71.39;102711.63;5049725;28;20040;-77
2024/03/07 01:56:50;;;;;;;70.63;29.65;;;;;;;9.12;71.17;102709.72;5049619;28;20501;-79
2024/03/07 01:59:20;;;;;;;72.85;29.40;;;;;;;9.06;71.64;102709.44;5065295;28;20025;-79
2024/03/07 02:01:46;;;;;;;74.05;30.60;;;;;;;9.02;71.27;102709.22;5047606;28;20029;-79
2024/03/07 02:04:12;;;;;;;73.43;28.88;;;;;;;8.87;71.87;102710.22;5049754;28;20033;-78
2024/03/07 02:06:37;;;;;;;86.00;30.73;;;;;;;8.88;72.46;102698.13;5048877;28;20033;-78
2024/03/07 02:09:03;;;;;;;77.07;31.10;;;;;;;8.93;72.42;102702.72;5048355;28;20052;-79
2024/03/07 02:11:28;;;;;;;75.85;31.33;;;;;;;8.91;72.57;102699.16;5050455;28;20037;-79
2024/03/07 02:13:56;;;;;;;82.90;30.42;;;;;;;8.88;72.25;102699.03;5049828;28;20063;-78
2024/03/07 02:16:21;;;;;;;70.32;29.17;;;;;;;8.85;72.28;102696.25;5050251;28;20124;-79
2024/03/07 02:18:50;;;;;;;73.65;29.67;;;;;;;8.81;72.41;102691.72;5049683;28;20067;-79
2024/03/07 02:21:23;;;;;;;82.95;30.77;;;;;;;8.79;72.37;102692.44;5049574;28;20029;-78
2024/03/07 02:23:48;;;;;;;78.43;30.50;;;;;;;8.75;72.87;102686.22;5065952;28;20037;-79
2024/03/07 02:26:16;;;;;;;74.15;30.45;;;;;;;8.80;72.32;102687.34;5049881;28;20048;-79
2024/03/07 02:28:50;;;;;;;78.43;31.45;;;;;;;8.58;73.29;102687.09;5047662;28;20464;-78
2024/03/07 02:31:19;;;;;;;72.38;28.88;;;;;;;8.76;73.15;102687.13;5049392;28;20033;-77
2024/03/07 02:33:48;;;;;;;75.13;30.40;;;;;;;8.65;73.62;102681.41;5049594;28;20029;-77
2024/03/07 02:36:16;;;;;;;74.70;29.90;;;;;;;8.76;72.88;102674.13;5049480;28;20098;-78
2024/03/07 02:38:44;;;;;;;76.47;30.77;;;;;;;8.69;72.28;102675.50;5049319;28;20060;-78
2024/03/07 02:41:10;;;;;;;74.40;30.83;;;;;;;8.65;72.64;102677.91;5052999;28;20053;-79
2024/03/07 02:43:37;;;;;;;77.35;29.45;;;;;;;8.66;72.45;102672.75;5052675;28;20056;-78
2024/03/07 02:46:06;;;;;;;86.15;32.25;;;;;;;8.60;72.88;102675.03;5053882;28;20033;-79
2024/03/07 02:48:34;;;;;;;77.20;30.63;;;;;;;8.58;73.09;102668.00;5052572;28;20126;-80
2024/03/07 02:51:05;;;;;;;80.00;30.63;;;;;;;8.67;72.90;102673.63;5053978;28;20040;-79
2024/03/07 02:53:32;;;;;;;77.38;30.35;;;;;;;8.62;72.85;102665.63;5052730;28;20568;-77
2024/03/07 02:55:57;;;;;;;81.53;30.67;;;;;;;8.51;74.29;102667.69;5051418;28;20043;-77
2024/03/07 02:58:24;;;;;;;75.05;30.05;;;;;;;8.62;73.27;102665.63;5052517;28;20025;-78
2024/03/07 03:00:56;;;;;;;77.88;29.98;;;;;;;8.61;73.16;102663.84;5053002;28;20029;-78
2024/03/07 03:03:21;;;;;;;80.38;32.03;;;;;;;8.55;73.24;102661.81;5051981;28;20033;-79
2024/03/07 03:05:47;;;;;;;76.30;30.30;;;;;;;8.57;73.01;102664.50;5053369;28;20091;-78
2024/03/07 03:08:15;;;;;;;78.55;31.33;;;;;;;8.45;73.64;102661.28;5053565;28;20401;-79
2024/03/07 03:10:44;;;;;;;74.43;30.15;;;;;;;8.49;73.70;102660.63;5052510;28;20063;-77
2024/03/07 03:13:15;;;;;;;78.22;31.60;;;;;;;8.47;73.63;102660.56;5052954;28;20033;-80
2024/03/07 03:15:43;;;;;;;78.40;30.77;;;;;;;8.47;72.97;102650.16;5052020;28;20056;-78
2024/03/07 03:18:09;;;;;;;79.63;30.75;;;;;;;8.45;73.80;102657.00;5051302;28;20041;-78
2024/03/07 03:20:42;;;;;;;80.63;31.30;;;;;;;8.43;74.16;102649.91;5052021;28;20043;-79
2024/03/07 03:23:13;;;;;;;85.88;31.85;;;;;;;8.46;73.43;102648.38;5052717;28;20505;-77
2024/03/07 03:25:38;;;;;;;84.25;32.45;;;;;;;8.46;73.15;102656.19;5052396;28;20485;-80
2024/03/07 03:28:05;;;;;;;84.05;32.20;;;;;;;8.44;73.47;102652.59;5052625;28;20033;-78
2024/03/07 03:30:32;;;;;;;79.55;32.15;;;;;;;8.40;73.11;102649.78;5052049;28;20033;-79
2024/03/07 03:33:05;;;;;;;83.10;32.30;;;;;;;8.41;73.52;102648.97;5052311;28;20029;-77
2024/03/07 03:35:37;;;;;;;89.65;33.30;;;;;;;7.96;75.44;102656.16;5051410;28;20041;-79
2024/03/07 03:38:03;;;;;;;84.90;32.33;;;;;;;8.35;74.02;102649.56;5052075;28;20036;-78
2024/03/07 03:40:28;;;;;;;84.00;32.38;;;;;;;8.31;74.11;102645.00;5051306;28;20067;-78
2024/03/07 03:42:54;;;;;;;85.10;32.83;;;;;;;8.34;74.59;102642.56;5052140;28;20037;-79
2024/03/07 03:45:19;;;;;;;79.97;31.85;;;;;;;8.17;75.78;102647.69;5052129;28;20553;-79
2024/03/07 03:47:45;;;;;;;84.72;32.40;;;;;;;8.26;74.88;102643.84;5052508;28;20040;-78
2024/03/07 03:50:11;;;;;;;86.43;32.88;;;;;;;8.29;74.19;102641.41;5052694;28;20075;-77
2024/03/07 03:52:37;;;;;;;84.28;33.60;;;;;;;8.22;75.21;102636.72;5050483;28;20033;-77
2024/03/07 03:55:05;;;;;;;86.82;34.47;;;;;;;8.07;76.15;102634.22;5052391;28;20033;-78
2024/03/07 03:57:31;;;;;;;93.85;34.00;;;;;;;8.26;76.04;102636.03;5051376;28;20545;-78
2024/03/07 03:59:57;;;;;;;93.65;35.88;;;;;;;8.38;75.40;102641.91;5052305;28;20029;-78
2024/03/07 04:02:22;;;;;;;87.78;34.20;;;;;;;8.35;75.82;102641.75;5051055;28;20407;-79
2024/03/07 04:04:49;;;;;;;94.93;35.10;;;;;;;8.43;75.23;102634.31;5051808;28;20371;-78
2024/03/07 04:07:20;;;;;;;93.20;34.58;;;;;;;8.00;77.36;102631.22;5051762;28;20025;-79
2024/03/07 04:09:46;;;;;;;99.00;34.63;;;;;;;8.29;76.82;102633.63;5051746;28;20490;-77
2024/03/07 04:12:12;;;;;;;96.65;35.53;;;;;;;8.41;75.49;102629.06;5051656;28;20025;-79
2024/03/07 04:14:41;;;;;;;89.10;34.40;;;;;;;8.59;75.15;102631.69;5051255;28;20478;-77
2024/03/07 04:17:13;;;;;;;89.25;34.08;;;;;;;8.32;76.20;102632.91;5050407;28;20151;-79
2024/03/07 04:19:45;;;;;;;87.40;34.60;;;;;;;8.38;76.94;102630.59;5051341;28;20057;-77
2024/03/07 04:22:10;;;;;;;94.65;34.90;;;;;;;8.60;76.15;102630.84;5051523;28;20139;-78
2024/03/07 04:24:35;;;;;;;93.68;35.67;;;;;;;8.48;77.71;102628.53;5054990;28;20083;-78
2024/03/07 04:27:07;;;;;;;96.95;36.60;;;;;;;8.67;77.40;102630.34;5056428;28;20393;-78
2024/03/07 04:29:35;;;;;;;97.28;35.47;;;;;;;8.88;76.46;102627.91;5052152;28;20041;-77
2024/03/07 04:32:03;;;;;;;88.90;36.13;;;;;;;8.82;77.08;102625.91;5051357;28;20041;-77
2024/03/07 04:34:32;;;;;;;94.20;34.67;;;;;;;9.15;75.61;102621.38;5051138;28;20028;-77
2024/03/07 04:37:01;;;;;;;92.00;35.17;;;;;;;9.08;75.67;102614.13;5051275;28;20116;-77
2024/03/07 04:39:33;;;;;;;82.88;33.28;;;;;;;9.17;74.17;102617.16;5050173;28;20100;-76
2024/03/07 04:42:02;;;;;;;85.35;33.45;;;;;;;9.20;74.17;102613.81;5050855;28;20429;-78
2024/03/07 04:44:28;;;;;;;86.20;35.17;;;;;;;9.04;74.37;102608.69;5050739;28;20037;-78
2024/03/07 04:46:56;;;;;;;84.80;34.63;;;;;;;8.99;73.83;102610.19;5049738;28;20416;-78
2024/03/07 04:49:26;;;;;;;82.35;33.88;;;;;;;9.07;73.89;102612.34;5050942;28;20406;-78
2024/03/07 04:51:53;;;;;;;85.28;33.92;;;;;;;9.00;73.91;102612.88;5050985;28;20119;-78
2024/03/07 04:54:19;;;;;;;91.45;34.85;;;;;;;8.90;74.97;102621.06;5049600;28;20024;-78
2024/03/07 04:56:48;;;;;;;87.82;33.35;;;;;;;9.06;74.10;102617.47;5050555;28;20036;-79
2024/03/07 04:59:18;;;;;;;86.50;33.88;;;;;;;8.94;73.91;102620.38;5050899;28;20029;-77
2024/03/07 05:01:47;;;;;;;92.50;36.70;;;;;;;8.66;75.20;102614.69;5050206;28;20033;-79
2024/03/07 05:04:14;;;;;;;94.38;35.67;;;;;;;8.71;74.87;102629.69;5050511;28;20035;-78
2024/03/07 05:06:43;;;;;;;85.72;33.63;;;;;;;8.65;75.16;102621.59;5049801;28;20520;-77
2024/03/07 05:09:09;;;;;;;94.25;35.25;;;;;;;8.58;76.21;102627.31;5051341;28;20061;-79
2024/03/07 05:11:36;;;;;;;95.68;36.75;;;;;;;8.64;76.29;102627.59;5050163;28;20033;-79
2024/03/07 05:14:02;;;;;;;86.53;34.13;;;;;;;8.85;75.01;102620.81;5050783;28;20551;-78
2024/03/07 05:16:28;;;;;;;88.22;34.20;;;;;;;8.75;74.23;102625.50;5050372;28;20029;-79
2024/03/07 05:18:55;;;;;;;83.15;34.97;;;;;;;8.92;74.04;102629.81;5050366;28;20033;-78
2024/03/07 05:21:38;;;;;;;82.65;33.60;;;;;;;8.76;74.50;102622.09;5050533;28;20036;-79
2024/03/07 05:24:08;;;;;;;87.15;34.95;;;;;;;8.75;74.47;102625.50;5050934;28;20029;-79
2024/03/07 05:26:40;;;;;;;93.15;34.58;;;;;;;8.76;74.32;102625.59;5049926;28;20120;-78
2024/03/07 05:29:08;;;;;;;86.60;34.22;;;;;;;8.54;75.35;102622.75;5050840;28;20329;-79
2024/03/07 05:31:38;;;;;;;93.50;35.30;;;;;;;8.50;75.37;102626.03;5051121;28;20075;-78
2024/03/07 05:34:08;;;;;;;94.53;36.25;;;;;;;8.41;76.03;102623.88;5051152;28;20041;-77
2024/03/07 05:36:33;;;;;;;89.10;35.63;;;;;;;8.61;75.13;102622.22;5051314;28;20044;-77
2024/03/07 05:39:10;;;;;;;94.47;35.72;;;;;;;8.36;75.70;102620.13;5051099;28;20398;-79
2024/03/07 05:41:36;;;;;;;91.65;35.85;;;;;;;8.34;75.53;102619.19;5050203;28;20064;-79
2024/03/07 05:44:08;;;;;;;89.03;35.40;;;;;;;8.57;75.60;102620.31;5048666;28;20053;-78
2024/03/07 05:46:41;;;;;;;95.88;35.40;;;;;;;8.28;75.84;102624.03;5049894;28;20045;-77
2024/03/07 05:49:20;;;;;;;84.32;33.92;;;;;;;8.63;74.75;102620.63;5050135;28;20525;-79
2024/03/07 05:51:51;;;;;;;85.88;35.20;;;;;;;8.19;76.05;102620.06;5048921;28;20029;-78
2024/03/07 05:54:19;;;;;;;92.07;35.05;;;;;;;8.46;75.10;102618.91;5049945;28;20033;-78
2024/03/07 05:56:45;;;;;;;86.93;34.83;;;;;;;8.38;74.96;102613.31;5049622;28;20029;-80
2024/03/07 05:59:10;;;;;;;86.60;34.15;;;;;;;8.51;74.78;102613.09;5050144;28;20123;-78
2024/03/07 06:01:44;;;;;;;85.38;34.00;;;;;;;8.23;74.75;102614.22;5049104;28;20397;-77
2024/03/07 06:04:16;;;;;;;88.22;35.22;;;;;;;8.50;74.54;102616.53;5048303;28;20404;-77
2024/03/07 06:06:42;;;;;;;86.53;34.30;;;;;;;8.35;74.39;102604.47;5047765;28;20105;-79
2024/03/07 06:09:22;;;;;;;85.63;34.28;;;;;;;8.42;74.46;102611.75;5050230;28;20233;-77
2024/03/07 06:11:48;;;;;;;85.88;34.30;;;;;;;8.42;73.79;102611.75;5048088;28;20029;-79
2024/03/07 06:14:24;;;;;;;82.10;32.95;;;;;;;8.39;74.30;102617.69;5050418;28;20043;-79
2024/03/07 06:16:49;;;;;;;88.65;33.65;;;;;;;8.45;74.20;102612.81;5052117;28;20036;-78
2024/03/07 06:19:21;;;;;;;86.85;35.67;;;;;;;8.22;74.83;102617.63;5053813;28;20461;-78
2024/03/07 06:21:46;;;;;;;96.70;34.22;;;;;;;8.04;76.13;102622.78;5052658;28;20037;-79
2024/03/07 06:24:15;;;;;;;87.78;34.40;;;;;;;8.23;75.43;102615.13;5053984;28;20112;-78
2024/03/07 06:26:47;;;;;;;84.82;34.72;;;;;;;8.47;73.41;102612.88;5051504;28;20041;-79
2024/03/07 06:29:17;;;;;;;87.43;35.08;;;;;;;8.19;75.27;102613.16;5053788;28;20033;-78
2024/03/07 06:31:43;;;;;;;92.15;34.53;;;;;;;7.86;75.49;102608.84;5052580;28;20052;-78
2024/03/07 06:34:12;;;;;;;92.82;36.28;;;;;;;8.00;75.29;102608.72;5053792;28;20029;-79
2024/03/07 06:36:38;;;;;;;92.85;34.88;;;;;;;8.35;75.04;102609.69;5053314;28;20498;-76
2024/03/07 06:39:05;;;;;;;88.38;35.40;;;;;;;8.01;76.01;102614.81;5052167;28;20057;-79
2024/03/07 06:41:32;;;;;;;92.95;34.30;;;;;;;8.38;75.39;102605.50;5052818;28;20032;-78
2024/03/07 06:43:57;;;;;;;87.25;34.70;;;;;;;8.49;74.84;102606.94;5053806;28;20033;-79
2024/03/07 06:46:25;;;;;;;90.18;35.10;;;;;;;8.46;74.39;102611.09;5051358;28;20076;-79
2024/03/07 06:48:51;;;;;;;85.20;34.00;;;;;;;8.48;74.27;102601.66;5053226;28;20110;-78
2024/03/07 06:51:19;;;;;;;84.90;35.53;;;;;;;8.66;74.62;102606.88;5053096;28;20033;-78
2024/03/07 06:53:48;;;;;;;86.50;35.08;;;;;;;8.69;75.21;102602.72;5051318;28;20025;-80
2024/03/07 06:56:19;;;;;;;88.43;35.63;;;;;;;8.80;75.65;102601.50;5054001;28;20483;-79
2024/03/07 06:58:45;;;;;;;88.22;35.00;;;;;;;9.47;74.77;102598.56;5053207;28;20497;-80
2024/03/07 07:01:23;;;;;;;84.90;35.35;;;;;;;9.85;73.15;102592.44;5053477;28;20033;-77
2024/03/07 07:03:49;;;;;;;91.28;34.38;;;;;;;10.09;70.98;102596.09;5052085;28;20409;-78
2024/03/07 07:06:14;;;;;;;82.03;34.83;;;;;;;10.16;69.55;102591.25;5050839;28;20033;-80
2024/03/07 07:08:40;;;;;;;73.05;33.47;;;;;;;10.24;69.24;102596.81;5052607;28;20187;-79
2024/03/07 07:11:05;;;;;;;71.30;32.90;;;;;;;10.05;68.13;102591.59;5051466;28;20032;-78
2024/03/07 07:13:33;;;;;;;67.65;31.67;;;;;;;10.60;67.18;102602.66;5050923;28;20060;-79
2024/03/07 07:15:59;;;;;;;69.80;31.92;;;;;;;10.43;65.72;102601.94;5052402;28;20067;-78
2024/03/07 07:18:27;;;;;;;63.88;29.90;;;;;;;10.93;65.49;102597.88;5043299;28;20110;-78
2024/03/07 07:20:52;;;;;;;62.17;30.20;;;;;;;10.96;64.60;102596.28;5050516;28;20519;-79
2024/03/07 07:23:18;;;;;;;61.88;29.90;;;;;;;11.02;63.35;102600.84;5051697;28;20116;-78
2024/03/07 07:25:43;;;;;;;69.18;30.85;;;;;;;10.87;62.30;102602.84;5050339;28;20041;-78
2024/03/07 07:28:11;;;;;;;65.85;30.23;;;;;;;10.50;63.50;102603.06;5051928;28;20414;-78
2024/03/07 07:30:37;;;;;;;63.38;30.80;;;;;;;10.34;64.79;102608.50;5050355;28;20037;-79
2024/03/07 07:33:05;;;;;;;62.33;31.10;;;;;;;10.06;66.17;102607.28;5051973;28;20040;-81
2024/03/07 07:35:31;;;;;;;71.22;31.27;;;;;;;9.72;67.65;102604.94;5051660;28;20066;-79
2024/03/07 07:37:59;;;;;;;64.72;31.23;;;;;;;9.80;67.43;102607.00;5052401;28;20029;-78
2024/03/07 07:40:27;;;;;;;65.40;31.85;;;;;;;9.49;69.03;102607.34;5049961;28;20509;-78
2024/03/07 07:42:53;;;;;;;64.45;30.00;;;;;;;9.41;68.76;102604.38;5051866;28;20086;-79
2024/03/07 07:45:22;;;;;;;72.97;33.15;;;;;;;9.83;67.73;102605.41;5052813;28;20033;-80
2024/03/07 07:47:49;;;;;;;65.53;31.50;;;;;;;9.91;67.98;102605.75;5052451;28;20123;-79
2024/03/07 07:50:23;;;;;;;68.10;31.75;;;;;;;9.97;66.93;102596.47;5052261;28;20082;-79
2024/03/07 07:52:50;;;;;;;69.07;31.90;;;;;;;10.22;67.08;102598.44;5057280;28;20037;-77
2024/03/07 07:55:18;;;;;;;66.15;31.05;;;;;;;10.04;67.48;102602.84;5053983;28;20025;-78
2024/03/07 07:57:55;;;;;;;68.57;31.77;;;;;;;10.08;67.21;102590.00;5053031;28;20049;-79
2024/03/07 08:00:24;;;;;;;68.18;31.63;;;;;;;10.26;67.08;102600.34;5055366;28;20033;-78
2024/03/07 08:03:04;;;;;;;66.25;30.35;;;;;;;10.65;65.71;102590.69;5051656;28;20041;-79
2024/03/07 08:05:36;;;;;;;59.88;29.75;;;;;;;10.31;66.82;102592.72;5051855;28;20037;-77
2024/03/07 08:08:05;;;;;;;69.45;31.23;;;;;;;10.51;65.93;102597.94;5053096;28;20029;-78
2024/03/07 08:10:37;;;;;;;66.65;30.77;;;;;;;10.79;65.75;102597.34;5050927;28;20033;-80
2024/03/07 08:13:06;;;;;;;72.60;31.33;;;;;;;10.83;65.13;102595.75;5052221;28;20632;-80
2024/03/07 08:15:31;;;;;;;60.20;29.10;;;;;;;10.80;65.95;102588.66;5051396;28;20052;-78
2024/03/07 08:17:59;;;;;;;64.45;30.80;;;;;;;10.18;65.68;102593.06;5053394;28;20508;-79
2024/03/07 08:20:25;;;;;;;61.97;30.00;;;;;;;9.96;65.99;102599.00;5053044;28;20179;-80
2024/03/07 08:22:52;;;;;;;64.05;29.67;;;;;;;9.90;65.95;102597.03;5052424;28;20087;-79
2024/03/07 08:25:25;;;;;;;58.70;29.02;;;;;;;10.49;65.75;102596.97;5053327;28;20033;-79
2024/03/07 08:27:53;;;;;;;64.10;29.83;;;;;;;10.57;65.40;102599.91;5053510;28;20032;-79
2024/03/07 08:30:19;;;;;;;60.95;29.58;;;;;;;10.64;64.08;102593.22;5051940;28;20116;-78
2024/03/07 08:32:45;;;;;;;59.55;29.52;;;;;;;10.78;63.50;102581.63;5067905;23;20098;-47
2024/03/07 08:35:11;;;;;;;59.50;29.23;;;;;;;11.29;62.51;102586.22;5071113;28;20094;-46
2024/03/07 08:37:41;;;;;;;59.75;28.90;;;;;;;11.04;62.04;102586.13;5070133;28;20045;-48
2024/03/07 08:40:09;;;;;;;56.92;28.90;;;;;;;11.20;62.12;102580.69;5070808;28;20732;-46
2024/03/07 08:42:35;;;;;;;58.33;28.58;;;;;;;11.34;61.46;102589.91;5069883;28;20032;-46
2024/03/07 08:45:04;;;;;;;55.25;27.27;;;;;;;11.32;61.38;102585.47;5070754;28;20398;-44
2024/03/07 08:47:33;;;;;;;52.75;27.02;;;;;;;11.16;61.89;102585.72;5070354;28;20118;-49
2024/03/07 08:49:59;;;;;;;51.75;27.45;;;;;;;10.96;61.48;102575.41;5071770;28;20081;-46
2024/03/07 08:52:25;;;;;;;53.80;26.52;;;;;;;11.20;61.13;102575.44;5071172;28;20031;-44
2024/03/07 08:54:51;;;;;;;51.30;25.80;;;;;;;10.88;60.87;102581.16;5070438;28;20442;-45
2024/03/07 08:57:19;;;;;;;53.97;25.60;;;;;;;10.92;59.88;102570.88;5070793;28;20036;-46
2024/03/07 08:59:45;;;;;;;51.30;25.88;;;;;;;11.49;59.10;102576.53;5070137;28;20433;-47
2024/03/07 09:02:14;;;;;;;52.72;25.75;;;;;;;11.61;59.25;102574.38;5070121;28;20036;-46
2024/03/07 09:04:40;;;;;;;51.85;26.02;;;;;;;11.79;58.25;102564.59;5070324;28;20036;-46
2024/03/07 09:07:06;;;;;;;50.58;26.13;;;;;;;11.81;58.41;102562.06;5070445;28;20051;-47
2024/03/07 09:09:32;;;;;;;47.17;24.85;;;;;;;11.44;57.66;102565.03;5070256;28;20047;-46
2024/03/07 09:11:57;;;;;;;46.17;23.73;;;;;;;10.97;58.00;102561.53;5069649;28;20470;-45
2024/03/07 09:14:23;;;;;;;46.88;24.80;;;;;;;10.99;57.31;102561.56;5069919;28;20036;-47
2024/03/07 09:16:49;;;;;;;49.40;23.92;;;;;;;11.56;57.30;102564.59;5070770;28;20552;-46
2024/03/07 09:19:19;;;;;;;47.63;23.60;;;;;;;11.79;57.10;102562.00;5070544;28;20487;-46
2024/03/07 09:21:46;;;;;;;46.45;23.58;;;;;;;11.96;56.26;102562.56;5069435;28;20425;-45
2024/03/07 09:24:11;;;;;;;45.00;22.83;;;;;;;11.91;55.35;102555.41;5070127;28;20028;-44
2024/03/07 09:26:36;;;;;;;44.00;23.15;;;;;;;11.57;56.94;102561.16;5069844;28;20039;-45
2024/03/07 09:29:05;;;;;;;45.03;22.88;;;;;;;11.48;56.26;102555.56;5071643;28;20028;-47
2024/03/07 09:31:33;;;;;;;39.58;21.05;;;;;;;11.16;56.29;102549.19;5071129;28;20407;-45
2024/03/07 09:33:59;;;;;;;43.85;21.67;;;;;;;11.46;56.56;102554.66;5071670;28;20169;-45
2024/03/07 09:36:25;;;;;;;41.75;21.55;;;;;;;11.30;56.36;102553.19;5071810;28;20066;-49
2024/03/07 09:38:50;;;;;;;43.47;22.55;;;;;;;11.57;55.48;102550.69;5072537;28;20028;-46
2024/03/07 09:41:16;;;;;;;42.63;22.23;;;;;;;11.36;55.86;102548.19;5069896;28;20040;-48
2024/03/07 09:43:44;;;;;;;42.25;22.45;;;;;;;12.17;54.82;102557.19;5070257;28;20445;-47
2024/03/07 09:46:11;;;;;;;42.80;21.50;;;;;;;12.22;54.22;102553.00;5070687;28;20037;-49
2024/03/07 09:48:37;;;;;;;39.05;20.70;;;;;;;11.35;55.09;102549.00;5069552;28;20111;-46
2024/03/07 09:51:04;;;;;;;40.20;21.08;;;;;;;11.55;54.41;102545.41;5069862;28;20115;-48
2024/03/07 09:53:30;;;;;;;42.75;20.95;;;;;;;11.88;53.37;102547.47;5069401;28;20040;-47
2024/03/07 09:55:57;;;;;;;40.47;21.15;;;;;;;11.43;54.99;102544.97;5069646;28;20025;-47
2024/03/07 09:58:25;;;;;;;39.20;20.70;;;;;;;11.80;53.41;102549.81;5069872;28;20048;-45
2024/03/07 10:00:53;;;;;;;39.15;20.55;;;;;;;11.52;54.10;102544.44;5069651;28;20067;-47
2024/03/07 10:03:22;;;;;;;37.72;20.30;;;;;;;11.60;53.98;102545.56;5069463;28;20072;-48
2024/03/07 10:05:47;;;;;;;39.78;20.42;;;;;;;11.70;53.90;102534.63;5069573;28;20028;-45
2024/03/07 10:08:13;;;;;;;36.53;20.75;;;;;;;12.09;53.31;102538.63;5070233;28;20033;-47
2024/03/07 10:10:39;;;;;;;36.40;19.75;;;;;;;11.99;51.99;102533.03;5069691;28;20655;-47
2024/03/07 10:13:05;;;;;;;36.97;19.23;;;;;;;11.48;52.94;102529.47;5069741;28;20025;-46
2024/03/07 10:15:32;;;;;;;36.25;18.85;;;;;;;11.80;52.84;102534.13;5068939;28;20044;-46
2024/03/07 10:17:58;;;;;;;37.08;18.63;;;;;;;11.54;53.40;102532.28;5069758;28;20035;-45
2024/03/07 10:20:24;;;;;;;36.78;19.92;;;;;;;11.77;53.02;102526.22;5069399;28;20032;-49
2024/03/07 10:22:50;;;;;;;34.63;18.48;;;;;;;11.95;51.84;102526.84;5068975;28;20032;-47
2024/03/07 10:25:24;;;;;;;32.20;18.92;;;;;;;12.07;51.43;102524.63;5069756;28;20115;-46
2024/03/07 10:27:50;;;;;;;34.33;19.42;;;;;;;12.11;50.95;102523.00;5070491;28;20041;-45
2024/03/07 10:30:20;;;;;;;35.70;19.35;;;;;;;12.84;50.04;102517.47;5072001;28;20042;-47
2024/03/07 10:32:46;;;;;;;36.13;18.73;;;;;;;12.82;51.55;102517.44;5071332;28;20032;-45
2024/03/07 10:35:14;;;;;;;35.33;18.67;;;;;;;12.62;50.00;102512.44;5070710;28;20037;-45
2024/03/07 10:37:40;;;;;;;33.10;19.00;;;;;;;12.58;50.48;102512.34;5070047;28;20039;-43
2024/03/07 10:40:15;;;;;;;32.88;18.42;;;;;;;12.58;49.69;102514.06;5071536;28;20037;-47
2024/03/07 10:42:46;;;;;;;32.97;18.30;;;;;;;12.90;50.27;102505.47;5070027;28;20036;-44
2024/03/07 10:45:17;;;;;;;34.13;18.63;;;;;;;12.79;49.92;102501.66;5071131;28;20032;-45
2024/03/07 10:47:45;;;;;;;31.48;17.75;;;;;;;12.62;50.42;102496.75;5069441;28;20406;-44
2024/03/07 10:50:21;;;;;;;32.92;18.92;;;;;;;12.62;49.77;102501.97;5070265;28;20583;-45
2024/03/07 10:53:07;;;;;;;31.30;17.83;;;;;;;12.21;50.88;102498.91;5070024;28;20036;-47
2024/03/07 10:56:08;;;;;;;32.35;18.23;;;;;;;12.34;51.00;102501.09;5069468;28;20376;-46
2024/03/07 10:58:34;;;;;;;32.20;17.88;;;;;;;12.57;50.71;102493.97;5069483;28;20542;-45
2024/03/07 11:01:03;;;;;;;30.70;17.60;;;;;;;12.80;48.51;102492.97;5070867;28;20127;-45
2024/03/07 11:03:32;;;;;;;29.40;16.15;;;;;;;12.83;48.22;102489.53;5070717;28;20037;-46
2024/03/07 11:05:57;;;;;;;28.88;15.65;;;;;;;12.50;46.20;102486.78;5072612;28;20112;-46
2024/03/07 11:08:26;;;;;;;28.55;16.30;;;;;;;12.12;46.85;102490.78;5072223;28;20144;-47
2024/03/07 11:10:51;;;;;;;26.55;15.43;;;;;;;12.25;46.49;102486.84;5072411;28;20039;-47
2024/03/07 11:13:18;;;;;;;26.15;15.82;;;;;;;12.39;46.29;102481.19;5072685;28;20036;-46
2024/03/07 11:15:47;;;;;;;26.35;15.65;;;;;;;12.23;47.02;102483.28;5070754;28;20033;-44
2024/03/07 11:18:13;;;;;;;27.45;15.90;;;;;;;13.08;45.62;102473.69;5072815;28;20029;-47